Time;durP1;ratioP1;P1;durP2;ratioP2;P2;SDS_P1;SDS_P2;PMS_P1;PMS_P2;Temp;Humidity;BMP_temperature;BMP_pressure;BME280_temperature;BME280_humidity;BME280_pressure;Samples;Min_cycle;Max_cycle;Signal;HPM_P1;HPM_P2
2023/08/24 00:00:25;;;;;;;;;;;;;;;21.92;44.16;101729.88;4827835;29;125083;-74
2023/08/24 00:02:52;;;;;;;;;;;;;;;21.92;44.28;101724.47;4822547;29;123721;-74
2023/08/24 00:05:20;;;;;;;;;;;;;;;21.92;44.26;101723.63;4825212;29;119777;-74
2023/08/24 00:07:48;;;;;;;;;;;;;;;21.89;44.28;101719.34;4844132;29;119336;-74
2023/08/24 00:10:15;;;;;;;;;;;;;;;21.87;44.30;101726.72;4823790;29;124374;-74
2023/08/24 00:12:42;;;;;;;;;;;;;;;21.85;44.27;101731.38;4828868;29;125122;-74
2023/08/24 00:15:10;;;;;;;;;;;;;;;21.82;44.27;101728.91;4826893;29;119727;-74
2023/08/24 00:17:37;;;;;;;;;;;;;;;21.81;44.32;101727.16;4826421;29;118182;-74
2023/08/24 00:20:07;;;;;;;;;;;;;;;21.79;44.33;101718.34;4830058;29;124237;-74
2023/08/24 00:22:34;;;;;;;;;;;;;;;21.78;44.29;101722.03;4829370;29;124135;-74
2023/08/24 00:25:01;;;;;;;;;;;;;;;21.75;44.48;101709.63;4825738;29;118684;-74
2023/08/24 00:27:28;;;;;;;;;;;;;;;21.74;44.34;101709.78;4831939;29;117720;-74
2023/08/24 00:29:55;;;;;;;;;;;;;;;21.72;44.38;101711.75;4829700;29;123148;-74
2023/08/24 00:32:22;;;;;;;;;;;;;;;21.71;44.40;101720.78;4821873;29;125030;-74
2023/08/24 00:34:49;;;;;;;;;;;;;;;21.69;44.38;101717.38;4830763;29;119305;-74
2023/08/24 00:37:16;;;;;;;;;;;;;;;21.66;44.47;101722.97;4834202;29;118260;-74
2023/08/24 00:39:43;;;;;;;;;;;;;;;21.63;44.38;101720.53;4835473;29;124126;-74
2023/08/24 00:42:14;;;;;;;;;;;;;;;21.61;44.43;101725.19;4830442;29;124953;-74
2023/08/24 00:44:43;;;;;;;;;;;;;;;21.59;44.38;101728.00;4849445;29;118494;-74
2023/08/24 00:47:11;;;;;;;;;;;;;;;21.57;44.55;101730.81;4844427;29;118108;-74
2023/08/24 00:49:38;;;;;;;;;;;;;;;21.55;44.56;101716.59;4831915;29;122724;-74
2023/08/24 00:52:05;;;;;;;;;;;;;;;21.54;44.65;101720.25;4828170;29;124019;-74
2023/08/24 00:54:32;;;;;;;;;;;;;;;21.52;44.54;101714.13;4835626;29;118713;-74
2023/08/24 00:56:59;;;;;;;;;;;;;;;21.46;44.55;101711.94;4835726;29;118020;-74
2023/08/24 00:59:26;;;;;;;;;;;;;;;21.43;44.58;101722.91;4822984;29;124150;-74
2023/08/24 01:01:53;;;;;;;;;;;;;;;21.38;44.64;101725.97;4820607;29;124386;-74
2023/08/24 01:04:20;;;;;;;;;;;;;;;21.33;44.68;101722.75;4824038;29;121452;-74
2023/08/24 01:06:47;;;;;;;;;;;;;;;21.31;44.71;101713.06;4821395;29;119718;-74
2023/08/24 01:09:14;;;;;;;;;;;;;;;21.29;44.70;101698.88;4834427;29;125042;-75
2023/08/24 01:11:59;;;;;;;;;;;;;;;21.28;44.74;101707.91;4827029;29;123870;-74
2023/08/24 01:14:45;;;;;;;;;;;;;;;21.26;44.78;101704.47;4829285;29;118598;-74
2023/08/24 01:17:16;;;;;;;;;;;;;;;21.19;44.82;101709.47;4838855;29;117867;-74
2023/08/24 01:19:44;;;;;;;;;;;;;;;21.14;44.84;101712.53;4823303;29;124681;-74
2023/08/24 01:22:31;;;;;;;;;;;;;;;21.10;44.82;101711.03;4829249;29;124177;-74
2023/08/24 01:25:00;;;;;;;;;;;;;;;21.08;44.84;101701.34;4829546;29;118905;-74
2023/08/24 01:27:28;;;;;;;;;;;;;;;21.06;44.98;101704.19;4821478;29;118368;-75
2023/08/24 01:29:57;;;;;;;;;;;;;;;21.06;44.91;101704.19;4829310;29;123641;-74
2023/08/24 01:32:24;;;;;;;;;;;;;;;21.06;44.95;101697.91;4834056;29;123804;-74
2023/08/24 01:34:51;;;;;;;;;;;;;;;21.05;44.93;101697.06;4820739;29;119886;-74
2023/08/24 01:37:19;;;;;;;;;;;;;;;21.04;45.00;101695.34;4843320;29;119689;-74
2023/08/24 01:40:00;;;;;;;;;;;;;;;21.02;45.15;101708.09;4830973;29;122403;-74
2023/08/24 01:42:29;;;;;;;;;;;;;;;20.99;45.07;101700.22;4830788;29;124787;-74
2023/08/24 01:45:00;;;;;;;;;;;;;;;20.99;45.21;101697.53;4819067;28;118553;-74
2023/08/24 01:47:27;;;;;;;;;;;;;;;20.97;45.21;101688.72;4827485;29;118895;-74
2023/08/24 01:49:55;;;;;;;;;;;;;;;20.96;45.13;101687.88;4822247;29;124132;-74
2023/08/24 01:52:22;;;;;;;;;;;;;;;20.97;45.21;101686.00;4823943;29;123893;-74
2023/08/24 01:54:50;;;;;;;;;;;;;;;20.96;45.29;101686.97;4843290;29;120350;-74
2023/08/24 01:57:16;;;;;;;;;;;;;;;20.96;45.35;101692.38;4829463;29;120110;-74
2023/08/24 01:59:43;;;;;;;;;;;;;;;20.96;45.36;101692.38;4849496;28;122573;-74
2023/08/24 02:02:10;;;;;;;;;;;;;;;20.98;45.40;101690.41;4849190;29;125775;-74
2023/08/24 02:04:37;;;;;;;;;;;;;;;21.00;45.48;101693.84;4829217;29;119586;-74
2023/08/24 02:07:04;;;;;;;;;;;;;;;21.02;45.38;101691.91;4850065;28;118735;-74
2023/08/24 02:09:31;;;;;;;;;;;;;;;21.05;45.66;101686.28;4829698;29;125915;-73
2023/08/24 02:11:58;;;;;;;;;;;;;;;21.07;45.56;101684.31;4829541;29;123886;-74
2023/08/24 02:14:25;;;;;;;;;;;;;;;21.09;45.53;101692.31;4814095;29;117624;-74
2023/08/24 02:16:52;;;;;;;;;;;;;;;21.10;45.50;101699.41;4823491;29;117290;-74
2023/08/24 02:19:18;;;;;;;;;;;;;;;21.11;45.56;101701.97;4830860;29;124401;-74
2023/08/24 02:21:45;;;;;;;;;;;;;;;21.12;45.59;101709.09;4848678;29;123932;-74
2023/08/24 02:24:12;;;;;;;;;;;;;;;21.15;45.56;101702.59;4825081;29;120344;-74
2023/08/24 02:26:39;;;;;;;;;;;;;;;21.17;45.65;101696.13;4833710;29;119309;-74
2023/08/24 02:29:06;;;;;;;;;;;;;;;21.19;45.67;101694.19;4833280;29;124661;-74
2023/08/24 02:31:33;;;;;;;;;;;;;;;21.20;45.63;101685.09;4842292;29;121427;-74
2023/08/24 02:34:00;;;;;;;;;;;;;;;21.23;45.55;101677.75;4832189;29;119846;-74
2023/08/24 02:36:28;;;;;;;;;;;;;;;21.24;45.65;101674.09;4827169;29;118401;-74
2023/08/24 02:38:55;;;;;;;;;;;;;;;21.24;45.50;101674.09;4832275;29;124843;-74
2023/08/24 02:41:24;;;;;;;;;;;;;;;21.24;45.69;101682.19;4827744;29;126063;-74
2023/08/24 02:43:51;;;;;;;;;;;;;;;21.25;45.77;101686.59;4821432;29;121135;-74
2023/08/24 02:46:20;;;;;;;;;;;;;;;21.26;45.79;101689.16;4822067;29;118822;-74
2023/08/24 02:48:47;;;;;;;;;;;;;;;21.28;45.77;101686.34;4832140;29;123291;-74
2023/08/24 02:51:14;;;;;;;;;;;;;;;21.30;45.83;101687.09;4823978;29;124115;-74
2023/08/24 02:53:41;;;;;;;;;;;;;;;21.30;45.81;101674.47;4831270;29;119351;-74
2023/08/24 02:56:08;;;;;;;;;;;;;;;21.33;45.73;101670.69;4845938;29;117647;-74
2023/08/24 02:58:35;;;;;;;;;;;;;;;21.35;45.79;101660.66;4831187;29;124475;-74
2023/08/24 03:01:08;;;;;;;;;;;;;;;21.34;45.81;101648.16;4818868;29;124173;-74
2023/08/24 03:03:36;;;;;;;;;;;;;;;21.33;45.85;101641.91;4830222;29;118425;-74
2023/08/24 03:06:05;;;;;;;;;;;;;;;21.34;45.93;101645.44;4847291;29;118476;-74
2023/08/24 03:08:34;;;;;;;;;;;;;;;21.33;45.98;101641.06;4813830;29;123983;-74
2023/08/24 03:11:01;;;;;;;;;;;;;;;21.34;46.05;101637.38;4823772;29;124500;-74
2023/08/24 03:13:28;;;;;;;;;;;;;;;21.35;46.06;101622.94;4833500;29;118704;-74
2023/08/24 03:15:55;;;;;;;;;;;;;;;21.36;46.01;101608.47;4830069;29;118124;-74
2023/08/24 03:18:26;;;;;;;;;;;;;;;21.37;46.11;101612.88;4839265;29;123667;-75
2023/08/24 03:20:53;;;;;;;;;;;;;;;21.37;46.10;101599.41;4845908;29;123323;-74
2023/08/24 03:23:20;;;;;;;;;;;;;;;21.37;46.16;101577.84;4829477;29;118933;-74
2023/08/24 03:25:47;;;;;;;;;;;;;;;21.37;46.24;101577.84;4848035;29;117483;-74
2023/08/24 03:28:14;;;;;;;;;;;;;;;21.36;46.25;101563.53;4849304;28;125356;-74
2023/08/24 03:30:46;;;;;;;;;;;;;;;21.35;46.33;101542.09;4822323;29;123379;-74
2023/08/24 03:33:13;;;;;;;;;;;;;;;21.34;46.42;101529.59;4841713;29;119675;-75
2023/08/24 03:35:40;;;;;;;;;;;;;;;21.33;46.36;101525.19;4831688;29;119552;-74
2023/08/24 03:38:08;;;;;;;;;;;;;;;21.34;46.52;101534.97;4830591;29;124568;-74
2023/08/24 03:40:35;;;;;;;;;;;;;;;21.33;46.60;101533.28;4831134;29;122746;-74
2023/08/24 03:43:02;;;;;;;;;;;;;;;21.35;46.68;101537.56;4830352;29;118465;-75
2023/08/24 03:45:29;;;;;;;;;;;;;;;21.37;46.67;101540.13;4824639;29;119306;-74
2023/08/24 03:47:56;;;;;;;;;;;;;;;21.40;46.71;101534.50;4831254;29;123794;-74
2023/08/24 03:50:23;;;;;;;;;;;;;;;21.42;46.59;101520.88;4845504;29;123727;-74
2023/08/24 03:52:51;;;;;;;;;;;;;;;21.42;46.61;101516.38;4832666;29;120793;-74
2023/08/24 03:55:18;;;;;;;;;;;;;;;21.43;46.58;101501.06;4829814;29;118766;-74
2023/08/24 03:57:45;;;;;;;;;;;;;;;21.44;46.79;101509.06;4831823;29;123771;-74
2023/08/24 04:00:12;;;;;;;;;;;;;;;21.45;46.79;101510.75;4822463;29;123053;-74
2023/08/24 04:02:42;;;;;;;;;;;;;;;21.48;46.89;101521.28;4819631;29;121757;-74
2023/08/24 04:05:15;;;;;;;;;;;;;;;21.50;46.87;101524.72;4847999;28;119631;-75
2023/08/24 04:07:42;;;;;;;;;;;;;;;21.53;46.91;101532.56;4828067;29;124703;-74
2023/08/24 04:10:09;;;;;;;;;;;;;;;21.55;46.88;101538.69;4847090;29;122981;-74
2023/08/24 04:12:36;;;;;;;;;;;;;;;21.61;46.87;101531.09;4846373;29;119553;-74
2023/08/24 04:15:04;;;;;;;;;;;;;;;21.63;46.83;101534.53;4832749;29;116715;-74
2023/08/24 04:17:31;;;;;;;;;;;;;;;21.64;47.00;101530.84;4831758;29;124046;-74
2023/08/24 04:19:58;;;;;;;;;;;;;;;21.65;46.91;101537.94;4829365;29;123988;-74
2023/08/24 04:22:25;;;;;;;;;;;;;;;21.65;46.96;101532.56;4851609;29;120122;-74
2023/08/24 04:24:52;;;;;;;;;;;;;;;21.65;46.93;101532.56;4830669;29;120151;-74
2023/08/24 04:27:19;;;;;;;;;;;;;;;21.66;46.89;101531.56;4832533;29;125005;-74
2023/08/24 04:29:46;;;;;;;;;;;;;;;21.67;46.98;101525.19;4835179;28;123978;-74
2023/08/24 04:32:13;;;;;;;;;;;;;;;21.69;47.01;101528.63;4829628;29;119440;-74
2023/08/24 04:34:40;;;;;;;;;;;;;;;21.71;46.98;101532.06;4831273;29;118833;-74
2023/08/24 04:37:07;;;;;;;;;;;;;;;21.72;47.04;101528.38;4831837;29;124730;-74
2023/08/24 04:39:34;;;;;;;;;;;;;;;21.72;47.05;101533.78;4836852;29;124101;-74
2023/08/24 04:42:02;;;;;;;;;;;;;;;21.71;47.05;101532.06;4835904;29;119145;-74
2023/08/24 04:44:29;;;;;;;;;;;;;;;21.69;47.01;101534.03;4829905;29;118487;-74
2023/08/24 04:46:56;;;;;;;;;;;;;;;21.68;47.10;101527.78;4826431;29;124900;-74
2023/08/24 04:49:23;;;;;;;;;;;;;;;21.69;47.16;101521.38;4832422;29;124239;-74
2023/08/24 04:51:50;;;;;;;;;;;;;;;21.71;47.25;101515.88;4848638;29;118740;-74
2023/08/24 04:54:17;;;;;;;;;;;;;;;21.71;47.32;101515.88;4850020;29;118647;-74
2023/08/24 04:56:44;;;;;;;;;;;;;;;21.72;47.40;101517.59;4830439;29;124219;-74
2023/08/24 04:59:11;;;;;;;;;;;;;;;21.73;47.19;101522.00;4830652;29;124276;-74
2023/08/24 05:01:38;;;;;;;;;;;;;;;21.74;47.19;101521.03;4832023;29;119878;-74
2023/08/24 05:04:05;;;;;;;;;;;;;;;21.72;47.13;101528.38;4836436;29;119513;-74
2023/08/24 05:06:32;;;;;;;;;;;;;;;21.70;47.20;101523.13;4833959;29;123208;-74
2023/08/24 05:08:59;;;;;;;;;;;;;;;21.68;47.33;101521.50;4817632;29;126001;-74
2023/08/24 05:11:28;;;;;;;;;;;;;;;21.66;47.36;101523.47;4831964;29;120086;-74
2023/08/24 05:13:56;;;;;;;;;;;;;;;21.64;47.26;101525.44;4834066;29;118799;-74
2023/08/24 05:16:23;;;;;;;;;;;;;;;21.61;47.23;101520.31;4822859;29;123732;-74
2023/08/24 05:18:50;;;;;;;;;;;;;;;21.57;47.22;101520.56;4815227;29;123003;-74
2023/08/24 05:21:17;;;;;;;;;;;;;;;21.53;47.30;101524.47;4826394;29;119838;-74
2023/08/24 05:23:44;;;;;;;;;;;;;;;21.51;47.39;101529.16;4822518;29;118702;-74
2023/08/24 05:26:10;;;;;;;;;;;;;;;21.48;47.47;101521.28;4827097;29;124418;-74
2023/08/24 05:28:37;;;;;;;;;;;;;;;21.45;47.59;101521.53;4824917;29;124527;-74
2023/08/24 05:31:04;;;;;;;;;;;;;;;21.46;47.58;101517.88;4830874;29;119390;-74
2023/08/24 05:33:33;;;;;;;;;;;;;;;21.47;47.58;101519.56;4833051;29;118242;-74
2023/08/24 05:36:00;;;;;;;;;;;;;;;21.48;47.71;101521.28;4833513;29;124058;-74
2023/08/24 05:38:27;;;;;;;;;;;;;;;21.49;47.65;101523.03;4833177;29;124883;-74
2023/08/24 05:40:54;;;;;;;;;;;;;;;21.52;47.77;101530.84;4834968;29;119703;-74
2023/08/24 05:43:21;;;;;;;;;;;;;;;21.54;47.80;101520.78;4831850;29;118139;-74
2023/08/24 05:45:48;;;;;;;;;;;;;;;21.57;47.77;101512.47;4830749;29;123525;-74
2023/08/24 05:48:15;;;;;;;;;;;;;;;21.61;47.82;101509.53;4827329;29;124463;-74
2023/08/24 05:50:46;;;;;;;;;;;;;;;21.64;47.91;101507.41;4834811;29;119937;-74
2023/08/24 05:53:13;;;;;;;;;;;;;;;21.68;47.98;101499.94;4820301;29;119130;-74
2023/08/24 05:55:40;;;;;;;;;;;;;;;21.71;47.90;101500.53;4828789;29;124353;-74
2023/08/24 05:58:08;;;;;;;;;;;;;;;21.75;47.99;101495.75;4833680;29;124371;-74
2023/08/24 06:00:35;;;;;;;;;;;;;;;21.79;48.05;101486.44;4840820;29;119612;-75
2023/08/24 06:03:02;;;;;;;;;;;;;;;21.84;47.99;101483.38;4833300;29;119422;-74
2023/08/24 06:05:30;;;;;;;;;;;;;;;21.86;48.08;101482.25;4830787;29;125267;-75
2023/08/24 06:07:58;;;;;;;;;;;;;;;21.90;48.06;101481.00;4820914;29;123592;-76
2023/08/24 06:10:26;;;;;;;;;;;;;;;21.91;48.14;101471.94;4849813;29;120090;-75
2023/08/24 06:12:53;;;;;;;;;;;;;;;21.96;48.14;101472.44;4832607;29;117888;-76
2023/08/24 06:15:24;;;;;;;;;;;;;;;22.01;48.25;101458.53;4831880;29;125279;-76
2023/08/24 06:17:51;;;;;;;;;;;;;;;22.07;48.21;101457.16;4832946;29;123849;-76
2023/08/24 06:20:19;;;;;;;;;;;;;;;22.14;48.30;101447.59;4829892;29;118927;-76
2023/08/24 06:22:46;;;;;;;;;;;;;;;22.20;48.25;101436.25;4829301;29;119114;-77
2023/08/24 06:25:13;;;;;;;;;;;;;;;22.29;48.34;101432.81;4831004;29;124007;-76
2023/08/24 06:27:40;;;;;;;;;;;;;;;22.37;48.32;101426.75;4830816;29;122979;-76
2023/08/24 06:30:07;;;;;;;;;;;;;;;22.45;48.34;101428.78;4835412;29;119495;-76
2023/08/24 06:32:43;;;;;;;;;;;;;;;22.52;48.25;101424.59;4830948;29;119322;-76
2023/08/24 06:35:14;;;;;;;;;;;;;;;22.59;48.29;101428.47;4833562;29;124071;-76
2023/08/24 06:37:41;;;;;;;;;;;;;;;22.67;48.44;101434.03;4831616;29;124687;-76
2023/08/24 06:40:09;;;;;;;;;;;;;;;22.74;48.36;101424.41;4828018;29;119086;-76
2023/08/24 06:42:36;;;;;;;;;;;;;;;22.84;48.35;101429.03;4832545;29;118433;-76
2023/08/24 06:45:02;;;;;;;;;;;;;;;22.93;48.39;101444.41;4843987;29;123800;-76
2023/08/24 06:47:29;;;;;;;;;;;;;;;23.03;48.43;101448.03;4832330;29;123674;-76
2023/08/24 06:49:56;;;;;;;;;;;;;;;23.13;48.52;101451.66;4835326;29;120700;-76
2023/08/24 06:52:24;;;;;;;;;;;;;;;23.27;48.39;101449.56;4821580;29;119002;-75
2023/08/24 06:54:53;;;;;;;;;;;;;;;23.38;48.34;101454.88;4827548;29;124671;-75
2023/08/24 06:57:20;;;;;;;;;;;;;;;23.50;48.39;101463.72;4831282;29;123434;-75
2023/08/24 06:59:47;;;;;;;;;;;;;;;23.61;48.21;101465.47;4823984;29;119789;-75
2023/08/24 07:02:14;;;;;;;;;;;;;;;23.73;48.50;101448.09;4822655;28;118142;-75
2023/08/24 07:04:41;;;;;;;;;;;;;;;23.85;48.38;101447.00;4827129;29;124429;-75
2023/08/24 07:07:08;;;;;;;;;;;;;;;23.98;48.30;101435.91;4821596;29;124207;-75
2023/08/24 07:09:35;;;;;;;;;;;;;;;24.10;48.34;101428.50;4823954;29;119546;-75
2023/08/24 07:12:03;;;;;;;;;;;;;;;24.22;48.46;101438.19;4831659;29;119196;-75
2023/08/24 07:14:30;;;;;;;;;;;;;;;24.35;48.46;101426.19;4830000;29;124968;-75
2023/08/24 07:16:57;;;;;;;;;;;;;;;24.48;48.39;101433.00;4844904;29;122769;-75
2023/08/24 07:19:24;;;;;;;;;;;;;;;24.62;48.30;101434.44;4837297;29;119063;-75
2023/08/24 07:21:51;;;;;;;;;;;;;;;24.77;48.43;101433.97;4832287;29;118651;-75
2023/08/24 07:24:20;;;;;;;;;;;;;;;24.92;48.35;101423.50;4822040;29;124345;-75
2023/08/24 07:27:05;;;;;;;;;;;;;;;25.03;48.07;101426.88;4815993;29;124177;-75
2023/08/24 07:29:31;;;;;;;;;;;;;;;25.15;48.21;101434.81;4825021;29;119289;-75
2023/08/24 07:31:58;;;;;;;;;;;;;;;25.29;48.20;101426.22;4823166;29;119701;-75
2023/08/24 07:34:26;;;;;;;;;;;;;;;25.41;48.06;101425.00;4823936;29;124901;-75
2023/08/24 07:36:53;;;;;;;;;;;;;;;25.54;47.98;101423.78;4828080;29;122948;-75
2023/08/24 07:39:20;;;;;;;;;;;;;;;25.64;47.92;101424.56;4830192;29;120461;-75
2023/08/24 07:41:47;;;;;;;;;;;;;;;25.76;48.11;101428.75;4825793;29;118608;-75
2023/08/24 07:44:14;;;;;;;;;;;;;;;25.89;48.15;101422.09;4840937;28;122721;-74
2023/08/24 07:46:40;;;;;;;;;;;;;;;26.01;47.92;101412.72;4825390;29;124066;-74
2023/08/24 07:49:07;;;;;;;;;;;;;;;26.14;47.99;101410.47;4826081;29;119561;-75
2023/08/24 07:51:34;;;;;;;;;;;;;;;26.28;48.06;101405.50;4829740;29;117939;-74
2023/08/24 07:54:04;;;;;;;;;;;;;;;26.41;48.11;101414.06;4832397;29;123732;-74
2023/08/24 07:56:31;;;;;;;;;;;;;;;26.55;47.80;101413.47;4833673;29;124450;-74
2023/08/24 07:58:58;;;;;;;;;;;;;;;26.66;48.04;101419.69;4829101;29;119159;-74
2023/08/24 08:01:25;;;;;;;;;;;;;;;26.78;47.57;101410.25;4830227;29;119363;-74
2023/08/24 08:03:52;;;;;;;;;;;;;;;26.87;47.78;101412.00;4831223;29;125281;-74
2023/08/24 08:06:21;;;;;;;;;;;;;;;26.93;47.53;101405.06;4827853;29;124273;-74
2023/08/24 08:08:50;;;;;;;;;;;;;;;27.02;47.49;101403.25;4829038;29;120147;-74
2023/08/24 08:11:17;;;;;;;;;;;;;;;27.12;47.42;101403.94;4829745;29;118780;-74
2023/08/24 08:13:44;;;;;;;;;;;;;;;27.22;47.41;101399.25;4826932;29;124801;-74
2023/08/24 08:16:11;;;;;;;;;;;;;;;27.33;47.72;101401.69;4824995;29;124553;-74
2023/08/24 08:18:38;;;;;;;;;;;;;;;27.44;47.47;101402.38;4830777;29;119823;-74
2023/08/24 08:21:23;;;;;;;;;;;;;;;27.54;47.57;101403.09;4829963;29;119072;-74
2023/08/24 08:23:50;;;;;;;;;;;;;;;27.63;47.18;101407.50;4824925;29;125854;-74
2023/08/24 08:26:17;;;;;;;;;;;;;;;27.71;47.08;101399.38;4826041;29;123933;-74
2023/08/24 08:28:44;;;;;;;;;;;;;;;27.77;47.21;101398.69;4824546;29;120216;-74
2023/08/24 08:31:11;;;;;;;;;;;;;;;27.83;46.91;101401.78;4837546;29;118916;-74
2023/08/24 08:33:38;;;;;;;;;;;;;;;27.88;47.01;101405.69;4832782;29;123801;-75
2023/08/24 08:36:05;;;;;;;;;;;;;;;27.95;47.03;101405.88;4819834;29;124405;-74
2023/08/24 08:38:32;;;;;;;;;;;;;;;28.02;46.88;101412.34;4825583;29;119415;-74
2023/08/24 08:41:04;;;;;;;;;;;;;;;28.08;46.88;101405.38;4820312;29;118605;-75
2023/08/24 08:43:31;;;;;;;;;;;;;;;28.15;46.91;101401.78;4832581;29;124887;-75
2023/08/24 08:45:59;;;;;;;;;;;;;;;28.25;46.88;101400.75;4831176;29;122836;-74
2023/08/24 08:48:27;;;;;;;;;;;;;;;28.30;46.80;101382.03;4827967;29;119022;-75
2023/08/24 08:50:56;;;;;;;;;;;;;;;28.31;46.53;101376.44;4825139;29;118625;-75
2023/08/24 08:53:23;;;;;;;;;;;;;;;28.31;46.68;101364.66;4817294;29;125337;-75
2023/08/24 08:55:54;;;;;;;;;;;;;;;28.35;46.90;101357.84;4845393;29;124956;-75
2023/08/24 08:58:21;;;;;;;;;;;;;;;28.36;46.71;101345.91;4826650;29;120763;-75
2023/08/24 09:00:49;;;;;;;;;;;;;;;28.41;46.92;101343.53;4825759;29;119492;-75
2023/08/24 09:03:19;;;;;;;;;;;;;;;28.48;46.79;101325.47;4828658;29;124866;-75
2023/08/24 09:05:49;;;;;;;;;;;;;;;28.57;46.95;101317.28;4829971;29;123197;-75
2023/08/24 09:08:17;;;;;;;;;;;;;;;28.64;46.79;101318.28;4832104;29;119513;-75
2023/08/24 09:10:44;;;;;;;;;;;;;;;28.69;46.88;101310.44;4831990;29;118995;-74
2023/08/24 09:13:12;;;;;;;;;;;;;;;28.74;46.87;101302.56;4847432;29;124254;-75
2023/08/24 09:15:39;;;;;;;;;;;;;;;28.80;46.60;101293.69;4836431;29;124453;-74
2023/08/24 09:18:06;;;;;;;;;;;;;;;28.84;46.71;101286.84;4832106;29;120439;-75
2023/08/24 09:20:34;;;;;;;;;;;;;;;28.92;46.72;101288.66;4829667;29;120738;-74
2023/08/24 09:23:01;;;;;;;;;;;;;;;28.99;46.62;101277.88;4832524;29;123237;-74
2023/08/24 09:25:28;;;;;;;;;;;;;;;29.05;46.53;101266.28;4823343;29;123949;-74
2023/08/24 09:27:58;;;;;;;;;;;;;;;29.08;46.70;101265.88;4823459;29;119415;-75
2023/08/24 09:30:29;;;;;;;;;;;;;;;29.10;46.27;101252.91;4835936;29;119211;-75
2023/08/24 09:33:01;;;;;;;;;;;;;;;29.10;46.39;101252.91;4847904;29;125129;-74
2023/08/24 09:35:28;;;;;;;;;;;;;;;29.12;46.26;101248.13;4819218;29;124005;-75
2023/08/24 09:37:55;;;;;;;;;;;;;;;29.15;46.34;101245.06;4828301;29;118458;-74
2023/08/24 09:40:26;;;;;;;;;;;;;;;29.20;46.46;101231.75;4820770;29;118563;-74
2023/08/24 09:42:53;;;;;;;;;;;;;;;29.27;46.48;101238.19;4820104;29;124462;-75
2023/08/24 09:45:19;;;;;;;;;;;;;;;29.35;46.34;101239.13;4822361;29;124420;-76
2023/08/24 09:47:51;;;;;;;;;;;;;;;29.37;46.22;101245.28;4845466;28;118760;-75
2023/08/24 09:50:18;;;;;;;;;;;;;;;29.42;46.45;101270.97;4828835;29;118491;-75
2023/08/24 09:52:47;;;;;;;;;;;;;;;29.50;46.43;101286.44;4842064;29;123465;-75
2023/08/24 09:55:19;;;;;;;;;;;;;;;29.58;46.52;101300.00;4825398;29;123863;-76
2023/08/24 09:57:46;;;;;;;;;;;;;;;29.68;46.48;101306.03;4843202;29;118418;-75
2023/08/24 10:00:14;;;;;;;;;;;;;;;29.77;46.52;101308.75;4830353;29;118569;-74
2023/08/24 10:02:48;;;;;;;;;;;;;;;29.83;46.51;101302.56;4828626;29;125135;-74
2023/08/24 10:05:23;;;;;;;;;;;;;;;29.88;46.41;101294.66;4825787;29;124258;-74
2023/08/24 10:07:54;;;;;;;;;;;;;;;29.93;46.34;101296.81;4820868;29;120285;-74
2023/08/24 10:10:21;;;;;;;;;;;;;;;29.99;46.40;101294.22;4826642;29;119662;-74
2023/08/24 10:12:50;;;;;;;;;;;;;;;30.07;46.39;101288.66;4824276;29;123920;-74
2023/08/24 10:15:18;;;;;;;;;;;;;;;30.15;46.26;101292.34;4826933;29;123926;-74
2023/08/24 10:17:45;;;;;;;;;;;;;;;30.18;46.04;101292.81;4820187;29;119771;-74
2023/08/24 10:20:12;;;;;;;;;;;;;;;30.23;46.20;101292.22;4829730;29;118663;-74
2023/08/24 10:22:40;;;;;;;;;;;;;;;30.27;46.16;101288.97;4826614;29;125228;-74
2023/08/24 10:25:08;;;;;;;;;;;;;;;30.27;46.00;101282.63;4831237;29;124925;-74
2023/08/24 10:27:36;;;;;;;;;;;;;;;30.27;45.93;101283.50;4824419;29;119489;-74
2023/08/24 10:30:03;;;;;;;;;;;;;;;30.27;45.95;101288.09;4832188;29;118685;-74
2023/08/24 10:32:31;;;;;;;;;;;;;;;30.29;45.99;101286.03;4829963;29;124621;-74
2023/08/24 10:34:58;;;;;;;;;;;;;;;30.31;45.93;101273.03;4820752;29;122976;-74
2023/08/24 10:37:26;;;;;;;;;;;;;;;30.32;45.91;101274.75;4823629;29;121138;-74
2023/08/24 10:39:53;;;;;;;;;;;;;;;30.33;46.07;101265.53;4821448;29;118624;-74
2023/08/24 10:42:23;;;;;;;;;;;;;;;30.33;46.02;101259.19;4829258;29;124323;-74
2023/08/24 10:44:50;;;;;;;;;;;;;;;30.33;46.02;101265.53;4825786;29;125104;-74
2023/08/24 10:47:17;;;;;;;;;;;;;;;30.33;45.90;101260.06;4825361;29;119588;-74
2023/08/24 10:49:56;;;;;;;;;;;;;;;30.32;45.95;101265.66;4829164;29;119478;-74
2023/08/24 10:52:24;;;;;;;;;;;;;;;30.29;45.82;101258.72;4844375;29;124800;-74
2023/08/24 10:54:52;;;;;;;;;;;;;;;30.25;45.99;101269.16;4828465;29;123970;-74
2023/08/24 10:57:20;;;;;;;;;;;;;;;30.26;45.87;101270.00;4830747;29;120583;-75
2023/08/24 11:00:06;;;;;;;;;;;;;;;30.26;46.04;101276.31;4826037;29;119489;-74
2023/08/24 11:02:47;;;;;;;;;;;;;;;30.26;46.05;101278.22;4827333;29;123329;-75
2023/08/24 11:05:29;;;;;;;;;;;;;;;30.27;46.04;101282.63;4846617;29;124235;-75
2023/08/24 11:07:57;;;;;;;;;;;;;;;30.27;45.89;101299.00;4836891;29;119572;-75
2023/08/24 11:10:24;;;;;;;;;;;;;;;30.27;45.85;101299.00;4844227;29;118746;-75
2023/08/24 11:13:04;;;;;;;;;;;;;;;30.27;45.89;101299.00;4829580;29;124412;-75
2023/08/24 11:15:31;;;;;;;;;;;;;;;30.25;45.92;101301.09;4829584;29;124007;-74
2023/08/24 11:18:15;;;;;;;;;;;;;;;30.21;45.84;101288.84;4829948;29;119242;-74
2023/08/24 11:20:45;;;;;;;;;;;;;;;30.21;45.82;101277.91;4830718;29;118668;-75
2023/08/24 11:23:14;;;;;;;;;;;;;;;30.21;45.82;101256.06;4844803;28;123850;-74
2023/08/24 11:25:41;;;;;;;;;;;;;;;30.21;45.78;101243.22;4843958;29;122818;-74
2023/08/24 11:28:08;;;;;;;;;;;;;;;30.23;45.89;101248.50;4830287;29;119419;-74
2023/08/24 11:30:36;;;;;;;;;;;;;;;30.26;45.84;101253.63;4841554;29;118679;-74
2023/08/24 11:33:03;;;;;;;;;;;;;;;30.30;45.92;101254.09;4830980;29;124922;-74
2023/08/24 11:35:34;;;;;;;;;;;;;;;30.33;45.98;101260.06;4824806;29;124269;-74
2023/08/24 11:38:02;;;;;;;;;;;;;;;30.37;45.93;101266.84;4818303;29;119468;-74
2023/08/24 11:40:29;;;;;;;;;;;;;;;30.42;45.87;101269.84;4831200;29;119087;-74
2023/08/24 11:42:56;;;;;;;;;;;;;;;30.50;45.84;101254.38;4826033;29;124111;-74
2023/08/24 11:45:23;;;;;;;;;;;;;;;30.55;45.76;101246.44;4830401;29;123030;-74
2023/08/24 11:47:50;;;;;;;;;;;;;;;30.56;45.89;101231.75;4828260;29;120675;-74
2023/08/24 11:50:17;;;;;;;;;;;;;;;30.56;45.81;101218.09;4821788;29;120065;-75
2023/08/24 11:52:44;;;;;;;;;;;;;;;30.58;45.71;101207.78;4827159;29;123872;-74
2023/08/24 11:55:12;;;;;;;;;;;;;;;30.58;45.82;101202.31;4827662;29;123970;-73
2023/08/24 11:57:39;;;;;;;;;;;;;;;30.57;45.66;101195.16;4829612;29;120222;-76
2023/08/24 12:00:07;;;;;;;;;;;;;;;30.58;45.66;101180.47;4824986;29;118754;-75
2023/08/24 12:02:34;;;;;;;;;;;;;;;30.59;45.90;101176.66;4821536;29;124261;-76
2023/08/24 12:05:02;;;;;;;;;;;;;;;30.61;45.84;101169.13;4828898;29;124883;-74
2023/08/24 12:07:29;;;;;;;;;;;;;;;30.59;45.64;101146.59;4829073;29;119399;-73
2023/08/24 12:10:01;;;;;;;;;;;;;;;30.58;45.55;101142.19;4829929;29;118393;-73
2023/08/24 12:12:28;;;;;;;;;;;;;;;30.52;45.41;101142.97;4828216;29;125424;-75
2023/08/24 12:14:57;;;;;;;;;;;;;;;30.50;45.55;101136.81;4829506;29;123801;-74
2023/08/24 12:17:24;;;;;;;;;;;;;;;30.45;45.53;101132.78;4819222;29;119945;-80
2023/08/24 12:19:59;;;;;;;;;;;;;;;30.43;45.69;101123.09;4832819;29;117608;-74
2023/08/24 12:22:26;;;;;;;;;;;;;;;30.39;45.57;101122.63;4833632;29;124162;-74
2023/08/24 12:24:53;;;;;;;;;;;;;;;30.38;45.55;101120.91;4828006;29;123552;-78
2023/08/24 12:27:22;;;;;;;;;;;;;;;30.40;45.85;101113.41;4827600;29;118785;-74
2023/08/24 12:29:49;;;;;;;;;;;;;;;30.46;45.70;101112.63;4831607;29;119226;-74
2023/08/24 12:32:16;;;;;;;;;;;;;;;30.52;45.69;101107.44;4824694;29;124059;-73